createdAt,value
2023-01-04T00:00:00.780Z,0.80
2023-01-04T00:02:28.516Z,0.90
2023-01-04T00:04:55.458Z,1.00
2023-01-04T00:07:22.715Z,1.10
2023-01-04T00:09:49.899Z,1.30
2023-01-04T00:12:16.820Z,1.30
2023-01-04T00:14:43.741Z,1.40
2023-01-04T00:17:10.681Z,1.50
2023-01-04T00:19:37.533Z,1.60
2023-01-04T00:22:04.561Z,1.50
2023-01-04T00:24:31.689Z,1.50
2023-01-04T00:26:58.615Z,1.20
2023-01-04T00:29:25.501Z,0.80
2023-01-04T00:31:54.328Z,0.50
2023-01-04T00:34:21.270Z,0.30
2023-01-04T00:36:48.306Z,0.30
2023-01-04T00:39:15.974Z,0.30
2023-01-04T00:42:00.326Z,0.30
2023-01-04T00:44:28.405Z,0.30
2023-01-04T00:46:55.335Z,0.40
2023-01-04T00:49:22.373Z,0.60
2023-01-04T00:51:49.422Z,0.60
2023-01-04T00:54:16.636Z,0.60
2023-01-04T00:56:44.187Z,0.40
2023-01-04T00:59:13.280Z,0.30
2023-01-04T01:01:40.743Z,0.40
2023-01-04T01:04:08.037Z,0.60
2023-01-04T01:06:35.264Z,1.00
2023-01-04T01:09:02.786Z,1.20
2023-01-04T01:11:30.671Z,1.40
2023-01-04T01:13:58.285Z,1.60
2023-01-04T01:16:52.921Z,1.70
2023-01-04T01:19:13.915Z,1.80
2023-01-04T01:21:41.196Z,1.80
2023-01-04T01:24:10.204Z,1.90
2023-01-04T01:26:37.159Z,1.90
2023-01-04T01:29:04.127Z,1.90
2023-01-04T01:31:31.079Z,2.00
2023-01-04T01:33:58.137Z,2.10
2023-01-04T01:36:26.071Z,2.10
2023-01-04T01:38:53.594Z,2.30
2023-01-04T01:41:23.620Z,2.30
2023-01-04T01:43:56.728Z,2.30
2023-01-04T01:46:26.709Z,2.10
2023-01-04T01:48:56.438Z,2.10
2023-01-04T01:51:23.484Z,2.10
2023-01-04T01:53:58.988Z,2.00
2023-01-04T01:56:30.301Z,2.00
2023-01-04T01:58:58.510Z,1.90
2023-01-04T02:01:25.873Z,2.00
2023-01-04T02:03:53.294Z,2.10
2023-01-04T02:06:31.529Z,2.20
2023-01-04T02:09:00.104Z,1.90
2023-01-04T02:11:27.177Z,1.50
2023-01-04T02:14:12.766Z,1.20
2023-01-04T02:16:52.310Z,1.10
2023-01-04T02:19:22.717Z,1.20
2023-01-04T02:22:08.383Z,1.40
2023-01-04T02:24:41.922Z,1.50
2023-01-04T02:27:27.874Z,1.40
2023-01-04T02:30:11.610Z,1.30
2023-01-04T02:32:38.551Z,1.40
2023-01-04T02:35:05.559Z,1.80
2023-01-04T02:37:42.079Z,2.00
2023-01-04T02:40:09.465Z,2.30
2023-01-04T02:42:58.137Z,2.30
2023-01-04T02:45:27.587Z,2.40
2023-01-04T02:48:13.178Z,2.40
2023-01-04T02:50:50.267Z,2.70
2023-01-04T02:53:21.939Z,2.50
2023-01-04T02:55:56.866Z,2.10
2023-01-04T02:58:23.871Z,2.10
2023-01-04T03:01:16.533Z,2.00
2023-01-04T03:04:21.033Z,2.10
2023-01-04T03:06:53.529Z,2.10
2023-01-04T03:09:24.377Z,2.20
2023-01-04T03:12:12.754Z,2.30
2023-01-04T03:14:42.324Z,2.50
2023-01-04T03:17:12.535Z,2.60
2023-01-04T03:19:55.414Z,2.80
2023-01-04T03:22:44.354Z,2.80
2023-01-04T03:25:30.746Z,2.80
2023-01-04T03:28:16.980Z,2.80
2023-01-04T03:31:06.653Z,2.90
2023-01-04T03:33:52.741Z,2.90
2023-01-04T03:36:19.642Z,2.60
2023-01-04T03:39:11.170Z,2.50
2023-01-04T03:42:01.945Z,2.40
2023-01-04T03:44:57.395Z,2.50
2023-01-04T03:47:52.507Z,2.60
2023-01-04T03:50:24.063Z,2.70
2023-01-04T03:52:51.358Z,2.70
2023-01-04T03:55:18.523Z,2.60
2023-01-04T03:57:46.498Z,2.40
2023-01-04T04:00:15.251Z,2.20
2023-01-04T04:02:42.421Z,2.20
2023-01-04T04:05:30.466Z,2.10
2023-01-04T04:08:16.190Z,2.10
2023-01-04T04:10:43.095Z,2.10
2023-01-04T04:13:10.068Z,2.20
2023-01-04T04:15:37.010Z,2.30
2023-01-04T04:18:04.010Z,2.40
2023-01-04T04:20:31.092Z,2.50
2023-01-04T04:22:57.953Z,2.40
2023-01-04T04:25:24.831Z,2.50
2023-01-04T04:27:52.128Z,2.40
2023-01-04T04:30:19.117Z,2.30
2023-01-04T04:32:46.072Z,2.40
2023-01-04T04:35:13.339Z,2.50
2023-01-04T04:37:40.390Z,2.60
2023-01-04T04:40:08.340Z,2.70
2023-01-04T04:42:36.368Z,2.80
2023-01-04T04:45:03.452Z,2.90
2023-01-04T04:47:30.353Z,2.90
2023-01-04T04:49:57.371Z,3.00
2023-01-04T04:52:24.263Z,3.10
2023-01-04T04:54:51.193Z,3.10
2023-01-04T04:57:18.135Z,3.20
2023-01-04T04:59:45.067Z,3.20
2023-01-04T05:02:12.120Z,3.20
2023-01-04T05:04:40.866Z,3.20
2023-01-04T05:07:12.400Z,3.20
2023-01-04T05:09:39.789Z,3.30
2023-01-04T05:12:25.416Z,3.30
2023-01-04T05:14:52.503Z,3.30
2023-01-04T05:17:19.598Z,3.40
2023-01-04T05:19:46.696Z,3.50
2023-01-04T05:22:13.881Z,3.50
2023-01-04T05:24:40.823Z,3.40
2023-01-04T05:27:07.782Z,3.20
2023-01-04T05:29:53.341Z,3.00
2023-01-04T05:32:20.332Z,3.10
2023-01-04T05:34:47.232Z,3.30
2023-01-04T05:37:14.178Z,3.30
2023-01-04T05:39:41.266Z,3.10
2023-01-04T05:42:26.652Z,3.00
2023-01-04T05:44:57.443Z,2.90
2023-01-04T05:47:24.983Z,3.10
2023-01-04T05:49:52.332Z,3.20
2023-01-04T05:52:19.692Z,3.30
2023-01-04T05:54:46.926Z,3.40
2023-01-04T05:57:13.916Z,3.50
2023-01-04T05:59:42.077Z,3.60
2023-01-04T06:02:17.904Z,3.60
2023-01-04T06:04:45.146Z,3.70
2023-01-04T06:07:12.679Z,3.70
2023-01-04T06:09:39.685Z,3.80
2023-01-04T06:12:06.793Z,3.80
2023-01-04T06:14:33.780Z,3.70
2023-01-04T06:17:01.044Z,3.50
2023-01-04T06:19:28.033Z,3.50
2023-01-04T06:21:54.908Z,3.50
2023-01-04T06:24:21.917Z,3.30
2023-01-04T06:26:48.877Z,3.10
2023-01-04T06:29:18.759Z,2.90
2023-01-04T06:31:46.021Z,2.70
2023-01-04T06:34:13.872Z,2.50
2023-01-04T06:36:41.334Z,2.50
2023-01-04T06:39:08.586Z,2.50
2023-01-04T06:41:35.567Z,2.40
2023-01-04T06:44:02.592Z,2.40
2023-01-04T06:46:34.001Z,2.50
2023-01-04T06:49:00.993Z,2.60
2023-01-04T06:51:27.995Z,2.70
2023-01-04T06:53:54.922Z,2.70
2023-01-04T06:56:21.899Z,2.90
2023-01-04T06:58:48.875Z,3.10
2023-01-04T07:01:15.840Z,3.30
2023-01-04T07:03:43.023Z,3.20
2023-01-04T07:06:10.775Z,3.10
2023-01-04T07:08:37.728Z,3.10
2023-01-04T07:11:04.959Z,3.00
2023-01-04T07:13:31.909Z,2.90
2023-01-04T07:15:58.915Z,2.70
2023-01-04T07:18:25.967Z,2.60
2023-01-04T07:20:52.823Z,2.60
2023-01-04T07:23:19.887Z,2.80
2023-01-04T07:25:46.801Z,3.00
2023-01-04T07:28:33.812Z,3.30
2023-01-04T07:31:03.946Z,3.40
2023-01-04T07:33:30.923Z,3.40
2023-01-04T07:36:01.595Z,3.20
2023-01-04T07:38:28.590Z,3.20
2023-01-04T07:40:56.746Z,3.30
2023-01-04T07:43:27.875Z,3.40
2023-01-04T07:45:55.844Z,3.50
2023-01-04T07:48:23.054Z,3.60
2023-01-04T07:50:50.451Z,3.80
2023-01-04T07:53:17.373Z,4.00
2023-01-04T07:55:44.351Z,4.30
2023-01-04T07:58:11.247Z,5.50
2023-01-04T08:00:38.281Z,8.50
2023-01-04T08:03:05.708Z,11.30
2023-01-04T08:05:33.520Z,13.20
2023-01-04T08:08:00.676Z,14.20
2023-01-04T08:10:30.290Z,15.00
2023-01-04T08:13:00.674Z,15.50
2023-01-04T08:15:27.794Z,16.00
2023-01-04T08:17:55.961Z,15.50
2023-01-04T08:20:23.273Z,14.70
2023-01-04T08:22:50.148Z,14.70
2023-01-04T08:25:17.239Z,14.90
2023-01-04T08:27:44.703Z,15.30
2023-01-04T08:30:11.789Z,15.00
2023-01-04T08:32:39.413Z,13.30
2023-01-04T08:35:06.477Z,13.80
2023-01-04T08:37:35.526Z,14.50
2023-01-04T08:40:02.787Z,12.90
2023-01-04T08:42:31.780Z,11.20
2023-01-04T08:45:01.818Z,9.90
2023-01-04T08:47:29.971Z,8.70
2023-01-04T08:49:57.333Z,8.20
2023-01-04T08:52:25.139Z,8.10
2023-01-04T08:54:52.226Z,8.90
2023-01-04T08:57:19.362Z,9.90
2023-01-04T08:59:46.308Z,11.30
2023-01-04T09:02:21.352Z,12.40
2023-01-04T09:04:48.752Z,11.80
2023-01-04T09:07:16.269Z,12.00
2023-01-04T09:09:43.716Z,13.60
2023-01-04T09:12:10.677Z,15.10
2023-01-04T09:14:37.949Z,14.80
2023-01-04T09:17:04.851Z,13.80
2023-01-04T09:19:31.797Z,12.20
2023-01-04T09:21:59.048Z,11.00
2023-01-04T09:24:26.066Z,10.20
2023-01-04T09:26:53.410Z,9.70
2023-01-04T09:29:20.505Z,9.10
2023-01-04T09:31:48.334Z,8.90
2023-01-04T09:34:17.463Z,8.90
2023-01-04T09:36:46.147Z,8.80
2023-01-04T09:39:21.141Z,8.70
2023-01-04T09:41:59.685Z,8.30
2023-01-04T09:45:03.103Z,8.20
2023-01-04T09:47:26.237Z,8.20
2023-01-04T09:50:04.698Z,8.20
2023-01-04T09:52:34.654Z,8.20
2023-01-04T09:55:36.551Z,8.20
2023-01-04T09:58:01.059Z,8.20
2023-01-04T10:00:28.073Z,8.20
2023-01-04T10:03:00.598Z,8.30
2023-01-04T10:05:31.135Z,8.50
2023-01-04T10:07:58.118Z,8.40
2023-01-04T10:10:48.572Z,8.50
2023-01-04T10:13:30.843Z,8.40
2023-01-04T10:16:17.627Z,8.20
2023-01-04T10:20:16.252Z,8.20
2023-01-04T10:21:56.704Z,8.20
2023-01-04T10:24:33.243Z,8.00
2023-01-04T10:27:03.330Z,7.80
2023-01-04T10:29:33.319Z,7.60
2023-01-04T10:32:03.361Z,7.60
2023-01-04T10:34:41.743Z,7.60
2023-01-04T10:37:14.173Z,7.60
2023-01-04T10:39:41.591Z,7.50
2023-01-04T10:42:08.555Z,7.60
2023-01-04T10:44:50.075Z,7.10
2023-01-04T10:47:26.402Z,7.20
2023-01-04T10:49:55.961Z,7.30
2023-01-04T10:52:28.096Z,7.30
2023-01-04T10:54:55.108Z,7.10
2023-01-04T10:57:34.144Z,7.00
2023-01-04T11:00:03.649Z,6.90
2023-01-04T11:02:30.760Z,7.00
2023-01-04T11:05:03.103Z,7.20
2023-01-04T11:07:36.852Z,7.30
2023-01-04T11:10:24.011Z,7.50
2023-01-04T11:12:51.106Z,7.50
2023-01-04T11:15:18.085Z,7.50
2023-01-04T11:17:45.518Z,7.60
2023-01-04T11:20:12.525Z,7.50
2023-01-04T11:22:41.044Z,7.60
2023-01-04T11:28:03.563Z,7.60
2023-01-04T11:30:42.971Z,7.60
2023-01-04T11:33:13.045Z,7.70
2023-01-04T11:35:44.254Z,7.50
2023-01-04T11:38:13.071Z,7.60
2023-01-04T11:40:41.394Z,7.80
2023-01-04T11:43:16.216Z,7.90
2023-01-04T11:45:53.299Z,7.90
2023-01-04T11:48:30.914Z,7.90
2023-01-04T11:50:58.232Z,7.80
2023-01-04T11:53:30.360Z,7.70
2023-01-04T11:56:09.571Z,7.70
2023-01-04T11:58:36.467Z,7.80
2023-01-04T12:01:03.882Z,7.90
2023-01-04T12:03:32.413Z,8.00
2023-01-04T12:05:59.619Z,8.00
2023-01-04T12:08:31.492Z,8.00
2023-01-04T12:11:01.200Z,7.90
2023-01-04T12:13:29.245Z,7.90
2023-01-04T12:16:07.862Z,7.80
2023-01-04T12:18:36.742Z,7.70
2023-01-04T12:21:04.391Z,7.60
2023-01-04T12:23:34.036Z,7.70
2023-01-04T12:26:05.164Z,7.70
2023-01-04T12:28:40.186Z,7.80
2023-01-04T12:31:34.043Z,7.70
2023-01-04T12:34:16.988Z,7.80
2023-01-04T12:36:53.328Z,7.90
2023-01-04T12:39:30.010Z,7.90
2023-01-04T12:42:03.916Z,8.00
2023-01-04T12:44:37.206Z,8.00
2023-01-04T12:47:22.999Z,8.00
2023-01-04T12:49:51.739Z,7.90
2023-01-04T12:52:42.993Z,8.10
2023-01-04T12:55:23.763Z,8.00
2023-01-04T12:57:50.689Z,8.00
2023-01-04T13:00:17.774Z,8.00
2023-01-04T13:02:50.857Z,7.90
2023-01-04T13:08:09.571Z,7.70
2023-01-04T13:10:36.498Z,7.80
2023-01-04T13:13:22.302Z,7.80
2023-01-04T13:16:04.587Z,7.80
2023-01-04T13:18:34.711Z,7.80
2023-01-04T13:21:03.184Z,7.90
2023-01-04T13:23:30.482Z,7.90
2023-01-04T13:26:17.336Z,7.90
2023-01-04T13:28:44.234Z,8.00
2023-01-04T13:31:11.306Z,8.00
2023-01-04T13:33:38.570Z,8.10
2023-01-04T13:36:10.038Z,8.10
2023-01-04T13:38:39.456Z,8.20
2023-01-04T13:41:17.839Z,8.10
2023-01-04T13:43:55.121Z,8.10
2023-01-04T13:46:25.904Z,8.00
2023-01-04T13:48:58.157Z,7.90
2023-01-04T13:51:36.156Z,8.00
2023-01-04T13:54:05.660Z,8.10
2023-01-04T13:56:34.047Z,8.20
2023-01-04T13:59:02.868Z,8.30
2023-01-04T14:01:31.264Z,8.20
2023-01-04T14:03:59.533Z,8.30
2023-01-04T14:06:26.534Z,8.30
2023-01-04T14:08:53.504Z,8.30
2023-01-04T14:11:45.238Z,8.30
2023-01-04T14:14:19.499Z,8.30
2023-01-04T14:16:46.786Z,8.30
2023-01-04T14:19:32.565Z,8.30
2023-01-04T14:21:59.458Z,8.20
2023-01-04T14:27:49.624Z,8.20
2023-01-04T14:30:19.950Z,8.10
2023-01-04T14:32:57.949Z,8.20
2023-01-04T14:35:25.590Z,8.10
2023-01-04T14:37:52.532Z,8.20
2023-01-04T14:40:31.650Z,8.20
2023-01-04T14:42:58.924Z,8.30
2023-01-04T14:45:25.839Z,8.10
2023-01-04T14:47:52.721Z,8.20
2023-01-04T14:50:19.822Z,8.20
2023-01-04T14:52:50.751Z,8.30
2023-01-04T14:55:17.711Z,8.20
2023-01-04T14:57:45.445Z,8.30
2023-01-04T15:00:18.936Z,8.20
2023-01-04T15:02:50.886Z,8.20
2023-01-04T15:05:20.545Z,8.40
2023-01-04T15:07:48.062Z,8.30
2023-01-04T15:10:22.699Z,8.10
2023-01-04T15:12:49.802Z,8.20
2023-01-04T15:15:16.991Z,8.10
2023-01-04T15:17:44.943Z,8.20
2023-01-04T15:20:12.296Z,8.20
2023-01-04T15:22:39.838Z,8.10
2023-01-04T15:25:07.467Z,8.10
2023-01-04T15:27:39.961Z,8.20
2023-01-04T15:30:09.596Z,8.20
2023-01-04T15:32:36.960Z,8.10
2023-01-04T15:35:03.979Z,8.00
2023-01-04T15:37:30.975Z,8.00
2023-01-04T15:40:02.252Z,8.10
2023-01-04T15:42:48.647Z,8.00
2023-01-04T15:45:15.866Z,7.90
2023-01-04T15:47:42.823Z,8.00
2023-01-04T15:50:09.852Z,8.10
2023-01-04T15:52:37.020Z,8.10
2023-01-04T15:55:04.075Z,8.00
2023-01-04T15:57:30.989Z,8.00
2023-01-04T15:59:58.362Z,7.80
2023-01-04T16:02:25.519Z,7.80
2023-01-04T16:04:52.708Z,7.80
2023-01-04T16:07:19.626Z,7.90
2023-01-04T16:09:46.609Z,7.90
2023-01-04T16:12:32.332Z,7.90
2023-01-04T16:14:59.344Z,7.80
2023-01-04T16:17:26.272Z,7.90
2023-01-04T16:19:53.212Z,7.80
2023-01-04T16:22:20.067Z,7.80
2023-01-04T16:27:35.593Z,7.70
2023-01-04T16:30:03.705Z,7.80
2023-01-04T16:32:30.811Z,7.80
2023-01-04T16:34:57.739Z,7.60
2023-01-04T16:37:28.504Z,7.70
2023-01-04T16:40:11.114Z,7.70
2023-01-04T16:42:39.032Z,7.60
2023-01-04T16:45:06.350Z,7.70
2023-01-04T16:47:37.804Z,7.70
2023-01-04T16:50:04.920Z,7.60
2023-01-04T16:52:31.900Z,7.60
2023-01-04T16:54:58.807Z,7.80
2023-01-04T16:57:25.711Z,7.80
2023-01-04T16:59:52.761Z,7.70
2023-01-04T17:02:20.315Z,7.70
2023-01-04T17:04:53.027Z,7.80
2023-01-04T17:07:20.018Z,7.80
2023-01-04T17:09:46.999Z,7.70
2023-01-04T17:17:51.713Z,7.90
2023-01-04T17:20:19.092Z,7.80
2023-01-04T17:22:45.969Z,7.80
2023-01-04T17:25:15.465Z,7.60
2023-01-04T17:27:42.363Z,7.70
2023-01-04T17:30:09.987Z,7.70
2023-01-04T17:32:36.908Z,7.70
2023-01-04T17:35:03.971Z,7.80
2023-01-04T17:37:30.915Z,7.80
2023-01-04T17:39:57.823Z,7.90
2023-01-04T17:42:24.874Z,7.80
2023-01-04T17:44:51.864Z,7.70
2023-01-04T17:47:19.542Z,7.80
2023-01-04T17:49:46.529Z,7.80
2023-01-04T17:52:20.103Z,7.80
2023-01-04T17:54:49.300Z,7.80
2023-01-04T17:57:16.211Z,7.80
2023-01-04T17:59:43.353Z,7.80
2023-01-04T18:02:10.822Z,7.70
2023-01-04T18:04:37.857Z,7.60
2023-01-04T18:07:04.779Z,7.70
2023-01-04T18:09:31.700Z,7.80
2023-01-04T18:11:59.013Z,7.80
2023-01-04T18:14:26.304Z,7.80
2023-01-04T18:16:57.390Z,7.80
2023-01-04T18:19:29.290Z,7.80
2023-01-04T18:21:56.687Z,7.80
2023-01-04T18:24:39.702Z,7.90
2023-01-04T18:27:27.442Z,7.90
2023-01-04T18:29:55.472Z,7.70
2023-01-04T18:32:23.121Z,7.20
2023-01-04T18:34:50.070Z,7.40
2023-01-04T18:37:18.913Z,7.50
2023-01-04T18:39:46.493Z,7.70
2023-01-04T18:42:13.552Z,7.80
2023-01-04T18:44:46.044Z,7.70
2023-01-04T18:47:16.653Z,7.50
2023-01-04T18:49:43.731Z,7.50
2023-01-04T18:52:10.853Z,7.70
2023-01-04T18:54:37.860Z,7.70
2023-01-04T18:57:05.395Z,7.70
2023-01-04T18:59:32.983Z,7.60
2023-01-04T19:02:01.917Z,7.50
2023-01-04T19:04:30.083Z,7.60
2023-01-04T19:06:57.062Z,7.80
2023-01-04T19:09:24.128Z,7.90
2023-01-04T19:11:51.084Z,7.80
2023-01-04T19:14:18.070Z,7.80
2023-01-04T19:16:45.049Z,7.50
2023-01-04T19:19:12.036Z,7.60
2023-01-04T19:21:38.969Z,7.80
2023-01-04T19:24:05.938Z,7.90
2023-01-04T19:26:32.913Z,8.10
2023-01-04T19:28:59.935Z,8.20
2023-01-04T19:31:26.934Z,8.30
2023-01-04T19:33:53.824Z,8.20
2023-01-04T19:36:21.088Z,8.20
2023-01-04T19:38:48.050Z,8.10
2023-01-04T19:41:16.166Z,8.00
2023-01-04T19:43:43.395Z,8.10
2023-01-04T19:46:11.837Z,8.20
2023-01-04T19:48:39.168Z,8.30
2023-01-04T19:51:10.750Z,8.30
2023-01-04T19:53:38.303Z,8.30
2023-01-04T19:56:05.480Z,8.40
2023-01-04T19:58:32.890Z,8.30
2023-01-04T20:01:00.037Z,8.40
2023-01-04T20:03:27.116Z,8.40
2023-01-04T20:05:54.100Z,8.40
2023-01-04T20:08:21.496Z,8.40
2023-01-04T20:10:55.289Z,8.40
2023-01-04T20:13:22.260Z,8.50
2023-01-04T20:15:49.188Z,8.50
2023-01-04T20:18:16.104Z,8.70
2023-01-04T20:20:44.107Z,8.70
2023-01-04T20:23:11.543Z,8.60
2023-01-04T20:25:45.618Z,8.70
2023-01-04T20:28:13.133Z,8.70
2023-01-04T20:30:40.533Z,8.70
2023-01-04T20:33:07.740Z,8.60
2023-01-04T20:35:37.632Z,8.40
2023-01-04T20:38:04.579Z,8.40
2023-01-04T20:40:31.437Z,8.30
2023-01-04T20:43:18.421Z,8.40
2023-01-04T20:45:46.004Z,8.50
2023-01-04T20:48:13.929Z,8.60
2023-01-04T20:50:41.310Z,8.50
2023-01-04T20:53:11.592Z,8.50
2023-01-04T20:55:40.449Z,8.60
2023-01-04T20:58:09.112Z,8.40
2023-01-04T21:00:37.318Z,8.50
2023-01-04T21:03:05.106Z,8.30
2023-01-04T21:05:58.969Z,8.20
2023-01-04T21:08:25.864Z,8.30
2023-01-04T21:10:53.209Z,8.30
2023-01-04T21:13:22.298Z,8.30
2023-01-04T21:15:51.185Z,8.30
2023-01-04T21:18:18.167Z,8.40
2023-01-04T21:20:45.175Z,8.40
2023-01-04T21:23:14.301Z,8.30
2023-01-04T21:25:41.955Z,8.40
2023-01-04T21:28:09.501Z,8.40
2023-01-04T21:30:39.319Z,8.30
2023-01-04T21:33:06.797Z,8.40
2023-01-04T21:35:33.946Z,8.30
2023-01-04T21:38:00.961Z,8.20
2023-01-04T21:40:27.933Z,8.20
2023-01-04T21:42:54.999Z,8.20
2023-01-04T21:45:21.910Z,8.30
2023-01-04T21:47:48.926Z,8.30
2023-01-04T21:50:17.309Z,8.40
2023-01-04T21:52:44.372Z,8.30
2023-01-04T21:55:11.420Z,8.40
2023-01-04T21:57:38.673Z,8.50
2023-01-04T22:00:06.431Z,8.40
2023-01-04T22:02:33.497Z,8.40
2023-01-04T22:05:00.562Z,8.50
2023-01-04T22:07:27.549Z,8.50
2023-01-04T22:09:57.630Z,8.60
2023-01-04T22:12:24.792Z,8.50
2023-01-04T22:14:52.014Z,8.60
2023-01-04T22:17:19.404Z,8.50
2023-01-04T22:19:46.665Z,8.60
2023-01-04T22:22:13.560Z,8.60
2023-01-04T22:24:40.540Z,8.60
2023-01-04T22:27:07.550Z,8.60
2023-01-04T22:29:34.488Z,8.60
2023-01-04T22:32:01.428Z,8.50
2023-01-04T22:34:28.523Z,8.50
2023-01-04T22:36:55.477Z,8.50
2023-01-04T22:39:22.549Z,8.40
2023-01-04T22:41:49.555Z,8.30
2023-01-04T22:44:16.614Z,8.30
2023-01-04T22:46:43.610Z,8.20
2023-01-04T22:49:10.938Z,8.10
2023-01-04T22:51:38.622Z,8.00
2023-01-04T22:54:05.927Z,8.00
2023-01-04T22:56:33.208Z,8.00
2023-01-04T22:59:00.296Z,8.00
2023-01-04T23:01:29.391Z,8.00
2023-01-04T23:03:57.234Z,8.00
2023-01-04T23:06:25.408Z,8.10
2023-01-04T23:08:56.547Z,8.20
2023-01-04T23:11:24.101Z,8.10
2023-01-04T23:13:51.268Z,8.00
2023-01-04T23:16:18.254Z,8.10
2023-01-04T23:18:45.680Z,8.10
2023-01-04T23:21:12.943Z,8.40
2023-01-04T23:23:40.177Z,8.30
2023-01-04T23:26:08.206Z,8.30
2023-01-04T23:28:38.132Z,8.30
2023-01-04T23:31:06.129Z,8.20
2023-01-04T23:33:36.350Z,8.30
2023-01-04T23:36:11.759Z,8.30
2023-01-04T23:38:39.725Z,8.40
2023-01-04T23:41:07.028Z,8.50
2023-01-04T23:43:37.913Z,8.50
2023-01-04T23:46:14.047Z,8.60
2023-01-04T23:48:41.504Z,8.60
2023-01-04T23:51:08.808Z,8.60
2023-01-04T23:53:35.820Z,8.70
2023-01-04T23:56:07.235Z,8.70
2023-01-04T23:58:34.337Z,8.60
